Time;durP1;ratioP1;P1;durP2;ratioP2;P2;SDS_P1;SDS_P2;PMS_P1;PMS_P2;Temp;Humidity;BMP_temperature;BMP_pressure;BME280_temperature;BME280_humidity;BME280_pressure;Samples;Min_cycle;Max_cycle;Signal;HPM_P1;HPM_P2
2023/12/17 00:02:05;;;;;;;7.80;5.50;;;;;;;-2.31;100.00;100001.66;1225786;75;2903447;-67
2023/12/17 00:04:38;;;;;;;8.65;6.25;;;;;;;-2.42;100.00;99996.72;1224532;75;2917058;-65
2023/12/17 00:07:11;;;;;;;11.20;7.25;;;;;;;-2.54;100.00;99994.00;1225044;75;2923215;-65
2023/12/17 00:09:43;;;;;;;12.35;8.45;;;;;;;-2.54;100.00;99993.22;1224896;75;2918999;-66
2023/12/17 00:12:16;;;;;;;9.30;7.10;;;;;;;-2.24;100.00;99993.84;1224541;75;2920781;-67
2023/12/17 00:14:52;;;;;;;8.95;6.15;;;;;;;-2.21;100.00;99991.31;1225367;75;2930112;-67
2023/12/17 00:17:24;;;;;;;8.15;6.00;;;;;;;-2.26;100.00;99999.56;1225133;75;2922194;-65
2023/12/17 00:19:57;;;;;;;5.90;4.75;;;;;;;-2.20;100.00;99998.22;1224549;75;2924223;-63
2023/12/17 00:22:30;;;;;;;7.35;4.90;;;;;;;-2.14;100.00;99998.81;1224453;75;2926474;-68
2023/12/17 00:25:03;;;;;;;6.75;4.55;;;;;;;-2.18;100.00;99996.00;1225315;75;2923641;-65
2023/12/17 00:27:36;;;;;;;6.45;4.20;;;;;;;-2.22;100.00;99987.03;1224945;75;2921747;-65
2023/12/17 00:30:13;;;;;;;4.85;3.75;;;;;;;-2.32;100.00;99992.84;1224646;75;2917523;-67
2023/12/17 00:32:46;;;;;;;7.00;5.20;;;;;;;-2.38;100.00;99988.81;1225411;75;2929913;-66
2023/12/17 00:35:19;;;;;;;8.15;5.45;;;;;;;-2.46;100.00;99987.75;1224924;75;2919866;-65
2023/12/17 00:37:52;;;;;;;6.45;4.95;;;;;;;-2.33;100.00;99988.59;1225188;75;2952886;-65
2023/12/17 00:40:25;;;;;;;6.45;4.50;;;;;;;-2.47;100.00;99977.38;1225357;75;2917847;-64
2023/12/17 00:42:58;;;;;;;6.75;4.90;;;;;;;-2.43;100.00;99991.69;1224426;75;2921696;-65
2023/12/17 00:45:33;;;;;;;10.10;6.60;;;;;;;-2.61;100.00;100002.56;1224530;75;2919487;-69
2023/12/17 00:48:07;;;;;;;7.95;5.90;;;;;;;-2.38;100.00;99994.19;1224609;75;2920814;-65
2023/12/17 00:50:39;;;;;;;8.00;4.95;;;;;;;-2.41;100.00;99976.81;1224479;75;2926110;-65
2023/12/17 00:53:12;;;;;;;7.75;5.40;;;;;;;-2.53;100.00;99979.47;1224768;75;2918436;-66
2023/12/17 00:55:45;;;;;;;9.50;6.85;;;;;;;-2.54;100.00;99972.53;1224747;75;2919332;-67
2023/12/17 00:58:18;;;;;;;7.25;5.80;;;;;;;-2.61;100.00;99970.41;1224456;75;2926769;-63
2023/12/17 01:00:53;;;;;;;7.70;5.35;;;;;;;-2.49;100.00;99971.56;1224650;75;2917584;-66
2023/12/17 01:03:26;;;;;;;8.05;5.65;;;;;;;-2.52;100.00;99969.56;1223981;75;2969139;-67
2023/12/17 01:05:59;;;;;;;6.25;4.70;;;;;;;-2.61;100.00;99957.00;1223319;75;2920027;-66
2023/12/17 01:08:32;;;;;;;7.55;5.70;;;;;;;-2.64;100.00;99957.66;1223752;75;3027910;-65
2023/12/17 01:11:04;;;;;;;5.65;4.10;;;;;;;-2.55;100.00;99954.88;1223652;75;2918040;-67
2023/12/17 01:13:37;;;;;;;7.15;4.55;;;;;;;-2.55;100.00;99965.59;1224239;75;2919640;-65
2023/12/17 01:16:13;;;;;;;6.95;4.15;;;;;;;-2.65;100.00;99966.03;1224630;75;2920547;-65
2023/12/17 01:18:46;;;;;;;8.35;4.80;;;;;;;-2.83;100.00;99962.72;1224766;75;2929147;-69
2023/12/17 01:21:19;;;;;;;8.00;5.20;;;;;;;-2.78;100.00;99968.66;1224799;75;2920048;-66
2023/12/17 01:23:51;;;;;;;6.90;4.85;;;;;;;-2.70;100.00;99972.38;1224943;75;2918576;-67
2023/12/17 01:26:26;;;;;;;7.50;4.55;;;;;;;-2.73;100.00;99977.63;1225738;75;2919436;-66
2023/12/17 01:28:59;;;;;;;6.45;4.40;;;;;;;-2.72;100.00;99977.28;1224251;75;2923455;-65
2023/12/17 01:31:34;;;;;;;6.15;4.35;;;;;;;-2.78;100.00;99974.03;1224768;75;2918809;-63
2023/12/17 01:34:07;;;;;;;6.90;4.60;;;;;;;-2.75;100.00;99979.84;1224708;75;2921134;-64
2023/12/17 01:36:41;;;;;;;7.25;4.95;;;;;;;-2.84;100.00;99974.53;1224593;75;2922048;-66
2023/12/17 01:39:14;;;;;;;5.60;4.15;;;;;;;-2.79;100.00;99966.28;1225216;75;2913571;-67
2023/12/17 01:41:47;;;;;;;6.10;4.05;;;;;;;-2.82;100.00;99958.91;1224028;75;2923972;-66
2023/12/17 01:44:20;;;;;;;5.60;3.65;;;;;;;-2.84;100.00;99969.19;1224282;75;2929359;-66
2023/12/17 01:46:55;;;;;;;7.90;5.40;;;;;;;-2.95;100.00;99968.03;1224856;75;2911291;-66
2023/12/17 01:49:28;;;;;;;7.10;5.30;;;;;;;-2.89;100.00;99964.03;1224738;75;2926253;-65
2023/12/17 01:52:01;;;;;;;6.20;4.40;;;;;;;-2.92;100.00;99967.38;1225433;75;2921757;-65
2023/12/17 01:54:34;;;;;;;7.45;4.75;;;;;;;-2.92;100.00;99970.81;1226006;75;2896008;-66
2023/12/17 01:57:08;;;;;;;6.75;5.45;;;;;;;-2.84;100.00;99971.88;1224125;75;2951487;-65
2023/12/17 01:59:41;;;;;;;6.25;5.15;;;;;;;-2.83;100.00;99971.53;1224611;75;2918321;-64
2023/12/17 02:02:18;;;;;;;6.80;5.05;;;;;;;-2.89;100.00;99964.81;1225500;75;2919136;-65
2023/12/17 02:04:51;;;;;;;6.30;4.90;;;;;;;-2.87;100.00;99959.91;1224303;75;2919209;-67
2023/12/17 02:07:24;;;;;;;6.10;4.50;;;;;;;-2.92;100.00;99965.47;1225486;75;2923036;-65
2023/12/17 02:09:57;;;;;;;7.60;5.90;;;;;;;-3.05;100.00;99958.50;1224531;75;2918473;-65
2023/12/17 02:12:32;;;;;;;8.90;6.85;;;;;;;-3.04;100.00;99957.38;1224805;75;2921892;-68
2023/12/17 02:15:04;;;;;;;7.15;5.55;;;;;;;-3.04;100.00;99960.84;1225269;75;2916486;-65
2023/12/17 02:17:40;;;;;;;7.60;5.45;;;;;;;-3.16;100.00;99955.41;1224970;75;2928370;-66
2023/12/17 02:20:14;;;;;;;7.80;5.75;;;;;;;-3.09;100.00;99957.56;1224975;75;2916112;-64
2023/12/17 02:22:51;;;;;;;5.70;4.65;;;;;;;-3.07;100.00;99956.13;1224037;75;2946309;-65
2023/12/17 02:25:27;;;;;;;7.75;5.90;;;;;;;-3.18;100.00;99944.22;1224867;75;2922603;-66
2023/12/17 02:28:00;;;;;;;7.30;5.50;;;;;;;-3.24;100.00;99932.94;1224994;75;2926339;-64
2023/12/17 02:30:33;;;;;;;9.70;6.75;;;;;;;-3.26;100.00;99937.06;1225006;75;2918312;-66
2023/12/17 02:33:06;;;;;;;7.15;5.40;;;;;;;-3.21;100.00;99928.81;1224906;75;2915021;-70
2023/12/17 02:35:39;;;;;;;8.30;5.70;;;;;;;-3.26;100.00;99929.03;1224890;75;2929224;-66
2023/12/17 02:38:12;;;;;;;9.75;7.00;;;;;;;-3.32;100.00;99928.44;1225275;75;2920238;-64
2023/12/17 02:40:49;;;;;;;14.95;9.30;;;;;;;-3.47;100.00;99919.06;1225085;75;2920625;-68
2023/12/17 02:43:22;;;;;;;14.70;9.95;;;;;;;-3.21;100.00;99928.81;1224959;75;2909342;-67
2023/12/17 02:45:54;;;;;;;14.90;10.50;;;;;;;-3.31;100.00;99934.59;1224754;75;2921287;-64
2023/12/17 02:48:27;;;;;;;13.70;9.45;;;;;;;-3.08;100.00;99933.16;1224508;75;2920010;-69
2023/12/17 02:51:00;;;;;;;11.15;7.65;;;;;;;-3.02;100.00;99931.81;1224740;75;2916180;-67
2023/12/17 02:53:33;;;;;;;10.05;7.35;;;;;;;-3.03;100.00;99929.47;1224561;75;2917344;-64
2023/12/17 02:56:09;;;;;;;8.45;5.95;;;;;;;-3.12;100.00;99921.50;1225007;75;2923016;-63
2023/12/17 02:58:43;;;;;;;8.10;5.90;;;;;;;-3.10;100.00;99910.44;1224741;75;2921421;-66
2023/12/17 03:01:16;;;;;;;9.45;6.70;;;;;;;-3.10;100.00;99915.81;1225122;75;2917106;-63
2023/12/17 03:03:48;;;;;;;6.40;5.05;;;;;;;-3.20;100.00;99919.66;1224962;75;2971716;-66
2023/12/17 03:06:21;;;;;;;7.10;5.40;;;;;;;-3.17;100.00;99923.63;1224722;75;2928294;-70
2023/12/17 03:08:54;;;;;;;9.55;6.40;;;;;;;-3.14;100.00;99922.94;1225668;75;2923088;-65
2023/12/17 03:11:30;;;;;;;9.65;6.50;;;;;;;-3.19;100.00;99915.13;1224670;75;2915483;-67
2023/12/17 03:14:03;;;;;;;9.35;6.55;;;;;;;-3.12;100.00;99921.50;1225044;75;2919575;-66
2023/12/17 03:16:35;;;;;;;8.05;6.00;;;;;;;-3.10;100.00;99915.81;1225892;75;2917539;-65
2023/12/17 03:19:08;;;;;;;11.75;8.50;;;;;;;-3.43;100.00;99921.91;1224545;67;2926949;-69
2023/12/17 03:21:41;;;;;;;12.30;9.35;;;;;;;-3.38;100.00;99924.38;1224955;75;2912914;-69
2023/12/17 03:24:14;;;;;;;13.15;8.40;;;;;;;-3.38;100.00;99924.38;1225503;75;2934300;-67
2023/12/17 03:26:49;;;;;;;13.65;8.70;;;;;;;-3.33;100.00;99924.19;1223685;75;2914498;-66
2023/12/17 03:29:22;;;;;;;11.40;7.90;;;;;;;-3.19;100.00;99918.56;1224892;75;2916147;-64
2023/12/17 03:31:55;;;;;;;9.95;7.00;;;;;;;-3.18;100.00;99911.31;1225510;75;2943023;-69
2023/12/17 03:34:29;;;;;;;7.95;6.40;;;;;;;-3.17;100.00;99911.00;1225317;75;2923931;-66
2023/12/17 03:37:02;;;;;;;9.75;6.75;;;;;;;-3.27;100.00;99911.38;1224591;75;2924625;-67
2023/12/17 03:39:35;;;;;;;7.35;5.85;;;;;;;-3.27;100.00;99906.00;1225080;75;2922840;-68
2023/12/17 03:42:10;;;;;;;8.75;5.95;;;;;;;-3.35;100.00;99909.56;1224953;75;2922195;-67
2023/12/17 03:44:44;;;;;;;10.60;7.60;;;;;;;-3.37;100.00;99906.41;1224854;75;2923809;-65
2023/12/17 03:47:17;;;;;;;7.95;6.15;;;;;;;-3.33;100.00;99899.31;1224537;75;2937062;-66
2023/12/17 03:49:50;;;;;;;9.00;6.25;;;;;;;-3.43;100.00;99895.13;1223691;75;2920709;-64
2023/12/17 03:52:23;;;;;;;7.70;5.50;;;;;;;-3.39;100.00;99895.25;1225361;75;2905784;-66
2023/12/17 03:54:56;;;;;;;8.10;6.00;;;;;;;-3.37;100.00;99893.81;1224326;75;2920675;-65
2023/12/17 03:57:31;;;;;;;8.70;6.20;;;;;;;-3.38;100.00;99886.91;1225243;75;2925778;-66
2023/12/17 04:00:06;;;;;;;8.45;6.40;;;;;;;-3.38;100.00;99894.94;1224545;75;2919311;-65
2023/12/17 04:02:39;;;;;;;13.45;9.10;;;;;;;-3.59;100.00;99883.44;1225507;75;2885149;-65
2023/12/17 04:05:12;;;;;;;12.60;8.60;;;;;;;-3.61;100.00;99883.75;1224038;75;2941761;-63
2023/12/17 04:07:45;;;;;;;14.25;9.80;;;;;;;-3.67;100.00;99867.09;1220494;75;2944897;-66
2023/12/17 04:10:18;;;;;;;14.90;9.75;;;;;;;-3.63;100.00;99864.56;1223831;75;2903998;-69
2023/12/17 04:12:54;;;;;;;14.30;10.05;;;;;;;-3.64;100.00;99873.69;1222028;75;2913544;-67
2023/12/17 04:15:27;;;;;;;12.45;9.40;;;;;;;-3.59;100.00;99870.81;1225765;75;2921691;-66
2023/12/17 04:17:59;;;;;;;10.05;7.90;;;;;;;-3.60;100.00;99871.16;1225023;75;2922390;-64
2023/12/17 04:20:32;;;;;;;10.70;7.60;;;;;;;-3.50;100.00;99874.22;1224820;75;2924470;-65
2023/12/17 04:23:05;;;;;;;10.30;7.15;;;;;;;-3.67;100.00;99869.78;1224798;75;2917656;-64
2023/12/17 04:25:38;;;;;;;8.05;6.20;;;;;;;-3.52;100.00;99873.75;1224793;75;2919584;-70
2023/12/17 04:28:13;;;;;;;8.30;5.85;;;;;;;-3.59;100.00;99873.50;1223861;75;2917838;-65
2023/12/17 04:30:46;;;;;;;6.90;5.35;;;;;;;-3.57;100.00;99870.50;1224308;75;2919577;-68
2023/12/17 04:33:19;;;;;;;6.75;4.95;;;;;;;-3.56;100.00;99872.06;1223885;75;2924914;-64
2023/12/17 04:35:52;;;;;;;7.95;5.25;;;;;;;-3.60;100.00;99855.88;1224966;75;2915292;-66
2023/12/17 04:38:25;;;;;;;6.05;4.60;;;;;;;-3.62;100.00;99855.41;1224339;75;2919981;-64
2023/12/17 04:40:57;;;;;;;5.40;3.80;;;;;;;-3.64;100.00;99855.72;1224352;75;2923593;-66
2023/12/17 04:43:33;;;;;;;6.30;4.80;;;;;;;-3.77;100.00;99859.47;1223882;75;2921884;-65
2023/12/17 04:46:06;;;;;;;9.10;6.45;;;;;;;-3.84;100.00;99858.41;1224305;75;2917053;-65
2023/12/17 04:48:39;;;;;;;7.90;6.30;;;;;;;-3.78;100.00;99849.84;1224167;75;2943075;-64
2023/12/17 04:51:12;;;;;;;7.75;6.20;;;;;;;-3.68;100.00;99854.03;1225086;67;2918159;-64
2023/12/17 04:53:44;;;;;;;11.90;8.65;;;;;;;-3.91;100.00;99853.56;1224275;75;2924146;-68
2023/12/17 04:56:17;;;;;;;13.85;9.25;;;;;;;-3.70;100.00;99850.91;1223982;75;2926057;-67
2023/12/17 04:58:53;;;;;;;9.45;7.05;;;;;;;-3.78;100.00;99849.84;1223693;75;2920979;-67
2023/12/17 05:01:26;;;;;;;10.40;7.75;;;;;;;-3.91;100.00;99848.22;1224761;75;2921215;-67
2023/12/17 05:03:59;;;;;;;12.75;7.35;;;;;;;-3.96;100.00;99857.22;1224840;75;2920912;-62
2023/12/17 05:06:31;;;;;;;8.45;6.45;;;;;;;-3.86;100.00;99862.19;1225048;75;2900349;-66
2023/12/17 05:09:04;;;;;;;10.25;6.75;;;;;;;-3.83;100.00;99865.31;1224173;75;2935661;-68
2023/12/17 05:11:37;;;;;;;7.00;5.45;;;;;;;-3.86;100.00;99866.75;1224183;75;2934748;-65
2023/12/17 05:14:13;;;;;;;8.45;6.00;;;;;;;-3.89;100.00;99862.06;1224308;75;2927393;-62
2023/12/17 05:16:46;;;;;;;6.45;4.95;;;;;;;-3.82;100.00;99856.16;1224636;75;2918790;-67
2023/12/17 05:19:19;;;;;;;6.20;4.75;;;;;;;-3.91;100.00;99842.88;1223450;75;2923587;-68
2023/12/17 05:21:51;;;;;;;7.35;5.05;;;;;;;-3.96;100.00;99849.19;1223755;75;2916569;-66
2023/12/17 05:24:24;;;;;;;5.20;4.10;;;;;;;-3.91;100.00;99840.97;1223393;75;2915549;-64
2023/12/17 05:26:57;;;;;;;6.75;4.95;;;;;;;-3.90;100.00;99845.19;1203596;75;4518604;-67
2023/12/17 05:29:32;;;;;;;6.45;4.70;;;;;;;-3.98;100.00;99840.69;1225022;75;2917221;-69
2023/12/17 05:32:05;;;;;;;7.10;6.00;;;;;;;-4.02;100.00;99841.66;1224707;75;2923446;-68
2023/12/17 05:34:38;;;;;;;9.80;6.65;;;;;;;-3.93;100.00;99845.09;1224990;75;2920397;-69
2023/12/17 05:37:11;;;;;;;15.90;10.40;;;;;;;-4.07;100.00;99839.97;1224356;75;2917713;-66
2023/12/17 05:39:44;;;;;;;22.65;13.90;;;;;;;-4.05;100.00;99832.41;1225066;75;2932519;-66
2023/12/17 05:42:17;;;;;;;23.40;15.30;;;;;;;-4.01;100.00;99833.34;1225146;75;2923187;-65
2023/12/17 05:44:53;;;;;;;16.35;11.80;;;;;;;-3.96;100.00;99841.16;1225149;75;2926045;-68
2023/12/17 05:47:26;;;;;;;15.90;11.15;;;;;;;-4.04;100.00;99847.34;1224762;75;2918903;-67
2023/12/17 05:49:59;;;;;;;13.90;9.70;;;;;;;-4.07;100.00;99843.41;1224181;75;2924074;-64
2023/12/17 05:52:32;;;;;;;10.20;7.85;;;;;;;-4.07;100.00;99830.03;1224476;75;2935995;-64
2023/12/17 05:55:04;;;;;;;10.10;7.55;;;;;;;-3.98;100.00;99827.31;1225497;75;2921892;-67
2023/12/17 05:57:38;;;;;;;10.20;7.85;;;;;;;-3.98;100.00;99816.63;1223957;75;2922367;-70
2023/12/17 06:00:16;;;;;;;12.70;7.55;;;;;;;-3.99;100.00;99817.75;1225250;75;2934616;-65
2023/12/17 06:02:49;;;;;;;9.10;6.90;;;;;;;-3.91;100.00;99826.81;1224851;75;2928101;-64
2023/12/17 06:05:22;;;;;;;7.30;5.55;;;;;;;-3.98;100.00;99821.97;1225201;75;2924146;-65
2023/12/17 06:07:54;;;;;;;8.00;6.00;;;;;;;-3.90;100.00;99815.78;1225240;75;2910451;-64
2023/12/17 06:10:27;;;;;;;8.05;5.55;;;;;;;-3.84;100.00;99823.63;1224415;75;2916778;-67
2023/12/17 06:13:00;;;;;;;8.55;6.55;;;;;;;-3.80;100.00;99830.69;1225066;75;2937394;-67
2023/12/17 06:15:36;;;;;;;10.30;7.90;;;;;;;-3.81;100.00;99828.31;1222974;75;2923294;-64
2023/12/17 06:18:09;;;;;;;11.05;7.65;;;;;;;-3.85;100.00;99828.19;1225063;75;2929440;-63
2023/12/17 06:20:42;;;;;;;8.25;6.50;;;;;;;-3.82;100.00;99832.09;1224470;75;2927087;-69
2023/12/17 06:23:15;;;;;;;16.60;12.15;;;;;;;-3.92;100.00;99831.38;1224206;75;2921884;-65
2023/12/17 06:25:48;;;;;;;15.60;11.20;;;;;;;-3.81;100.00;99839.03;1224809;75;2936504;-63
2023/12/17 06:28:21;;;;;;;15.65;10.30;;;;;;;-3.76;100.00;99838.81;1225105;75;2913960;-65
2023/12/17 06:30:56;;;;;;;13.45;9.35;;;;;;;-3.82;100.00;99850.81;1224662;75;2926422;-64
2023/12/17 06:33:29;;;;;;;11.55;8.65;;;;;;;-3.79;100.00;99848.28;1224635;75;2935968;-64
2023/12/17 06:36:02;;;;;;;9.40;7.35;;;;;;;-3.82;100.00;99854.31;1224802;75;2919869;-69
2023/12/17 06:38:35;;;;;;;10.25;7.15;;;;;;;-3.82;100.00;99853.50;1225518;75;2922187;-65
2023/12/17 06:41:08;;;;;;;11.90;8.10;;;;;;;-3.96;100.00;99862.56;1221551;75;3060768;-67
2023/12/17 06:43:42;;;;;;;13.50;8.65;;;;;;;-4.05;100.00;99866.41;1225275;75;2920130;-65
2023/12/17 07:03:18;;;;;;;7.70;5.85;;;;;;;-3.49;100.00;99891.88;1217038;75;3616252;-64
2023/12/17 07:05:50;;;;;;;7.60;5.70;;;;;;;-3.53;100.00;99896.31;1224600;75;2922840;-67
2023/12/17 07:08:25;;;;;;;10.55;7.40;;;;;;;-3.64;100.00;99901.25;1224650;75;2929671;-64
2023/12/17 07:10:57;;;;;;;11.05;7.90;;;;;;;-3.64;100.00;99901.25;1224487;75;2922933;-66
2023/12/17 07:13:30;;;;;;;9.45;8.20;;;;;;;-3.39;100.00;99900.59;1224787;75;2933915;-67
2023/12/17 07:16:03;;;;;;;9.50;7.70;;;;;;;-3.29;100.00;99897.56;1224022;75;2922485;-65
2023/12/17 07:18:39;;;;;;;10.05;7.60;;;;;;;-3.23;100.00;99896.22;1223222;75;2923321;-65
2023/12/17 07:21:11;;;;;;;14.40;10.10;;;;;;;-3.44;100.00;99896.22;1224548;75;2919702;-67
2023/12/17 07:23:44;;;;;;;22.85;15.70;;;;;;;-3.30;100.00;99890.59;1224580;75;2925602;-66
2023/12/17 07:26:17;;;;;;;21.50;14.45;;;;;;;-3.02;100.00;99896.22;1224335;75;2932135;-66
2023/12/17 07:28:50;;;;;;;16.35;11.60;;;;;;;-2.85;100.00;99898.72;1225117;75;2920028;-67
2023/12/17 07:31:23;;;;;;;11.30;9.25;;;;;;;-3.01;100.00;99893.22;1226151;75;2932202;-63
2023/12/17 07:33:58;;;;;;;13.70;9.00;;;;;;;-2.98;100.00;99891.78;1225594;75;2926136;-67
2023/12/17 07:36:31;;;;;;;14.90;10.60;;;;;;;-2.76;100.00;99895.97;1225447;75;2921197;-64
2023/12/17 07:39:04;;;;;;;13.35;10.15;;;;;;;-2.14;100.00;99894.16;1225439;75;2913767;-63
2023/12/17 07:41:38;;;;;;;10.00;8.05;;;;;;;-1.69;100.00;99905.88;1224760;75;2938883;-68
2023/12/17 07:44:11;;;;;;;8.90;7.35;;;;;;;-1.20;100.00;99906.56;1225273;75;2943424;-67
2023/12/17 07:46:44;;;;;;;9.35;7.10;;;;;;;-0.93;100.00;99896.94;1225793;75;2917158;-63
2023/12/17 07:49:19;;;;;;;11.25;9.00;;;;;;;-0.99;100.00;99898.28;1225226;75;2919996;-65
2023/12/17 07:51:52;;;;;;;12.75;8.90;;;;;;;-0.81;100.00;99901.47;1225095;75;2914400;-67
2023/12/17 07:54:26;;;;;;;10.95;8.95;;;;;;;-0.89;100.00;99907.75;1225315;75;2919972;-64
2023/12/17 07:56:58;;;;;;;10.60;8.35;;;;;;;-0.84;100.00;99912.13;1224028;75;2922478;-63
2023/12/17 07:59:31;;;;;;;9.00;7.70;;;;;;;-0.49;100.00;99909.59;1225178;75;2927167;-67
2023/12/17 08:02:04;;;;;;;20.55;14.60;;;;;;;-0.98;100.00;99913.31;1225465;75;2916764;-67
2023/12/17 08:04:41;;;;;;;19.05;13.10;;;;;;;-0.77;100.00;99910.44;1224656;75;2927976;-65
2023/12/17 08:07:17;;;;;;;12.40;9.75;;;;;;;-0.28;100.00;99914.72;1219904;75;2931738;-65
2023/12/17 08:09:50;;;;;;;19.15;12.05;;;;;;;-0.59;100.00;99915.47;1127940;75;8080003;-64
2023/12/17 08:12:23;;;;;;;14.95;10.70;;;;;;;-0.69;100.00;99906.78;1225086;75;2928536;-63
2023/12/17 08:14:56;;;;;;;17.05;13.30;;;;;;;-0.68;100.00;99908.34;1163254;75;5408686;-61
2023/12/17 08:17:28;;;;;;;15.75;11.75;;;;;;;-0.52;100.00;99904.91;1224702;68;2917761;-66
2023/12/17 08:20:04;;;;;;;15.45;11.40;;;;;;;-0.18;100.00;99905.34;1223297;75;2918505;-65
2023/12/17 08:22:37;;;;;;;14.10;10.80;;;;;;;-0.34;100.00;99910.72;1225912;75;2925092;-66
2023/12/17 08:25:11;;;;;;;12.15;9.05;;;;;;;0.10;100.00;99926.81;1225164;75;2923250;-64
2023/12/17 08:27:44;;;;;;;12.05;9.10;;;;;;;-0.25;100.00;99912.13;1226026;75;2917074;-64
2023/12/17 08:30:17;;;;;;;13.70;10.20;;;;;;;-0.06;100.00;99922.19;1199055;75;4874803;-64
2023/12/17 08:32:50;;;;;;;12.35;9.00;;;;;;;-0.04;100.00;99909.16;1224189;75;2932411;-63
2023/12/17 08:35:26;;;;;;;12.55;9.40;;;;;;;-0.03;100.00;99907.25;1224811;75;2929523;-64
2023/12/17 08:38:03;;;;;;;12.95;9.05;;;;;;;0.88;100.00;99908.06;1224392;75;2924012;-68
2023/12/17 08:40:37;;;;;;;10.00;7.75;;;;;;;1.20;100.00;99906.00;1224622;75;2929905;-65
2023/12/17 08:43:11;;;;;;;10.65;7.95;;;;;;;1.02;100.00;99913.75;1224970;75;2936336;-64
2023/12/17 08:45:44;;;;;;;12.90;11.35;;;;;;;0.67;100.00;99895.72;1223764;75;2916867;-65
2023/12/17 08:48:16;;;;;;;12.80;10.15;;;;;;;0.49;100.00;99902.66;1224529;75;2926862;-64
2023/12/17 08:50:52;;;;;;;14.95;10.60;;;;;;;0.62;100.00;99907.53;1225146;75;2917166;-66
2023/12/17 08:53:26;;;;;;;12.75;9.50;;;;;;;1.09;100.00;99907.72;1225633;75;2916202;-64
2023/12/17 08:55:59;;;;;;;12.65;9.40;;;;;;;1.57;100.00;99908.97;1224416;75;2924524;-65
2023/12/17 08:58:32;;;;;;;12.30;8.60;;;;;;;1.72;100.00;99907.31;1225336;75;2921628;-68
2023/12/17 09:01:05;;;;;;;10.35;8.25;;;;;;;1.90;100.00;99907.59;1225375;75;2916684;-65
2023/12/17 09:03:38;;;;;;;13.75;10.00;;;;;;;1.61;100.00;99896.34;1226042;75;2916293;-66
2023/12/17 09:06:14;;;;;;;14.75;11.10;;;;;;;2.12;100.00;99895.22;1225983;75;2921616;-66
2023/12/17 09:08:47;;;;;;;13.60;9.40;;;;;;;2.04;100.00;99890.81;1223452;75;2929396;-65
2023/12/17 09:11:21;;;;;;;14.25;10.20;;;;;;;2.39;100.00;99893.28;1222407;75;2922065;-66
2023/12/17 09:13:53;;;;;;;18.10;13.50;;;;;;;2.93;99.79;99883.88;1224481;75;2932675;-65
2023/12/17 09:16:26;;;;;;;14.70;10.55;;;;;;;3.16;96.61;99886.47;1219310;75;3113858;-67
2023/12/17 09:18:59;;;;;;;10.60;8.95;;;;;;;4.31;87.82;99890.16;1224226;75;2933469;-69
2023/12/17 09:21:35;;;;;;;11.30;7.35;;;;;;;4.71;83.51;99874.84;1223259;75;2920502;-67
2023/12/17 09:24:09;;;;;;;11.00;6.85;;;;;;;5.20;81.12;99878.88;1224597;75;2921306;-66
2023/12/17 09:26:42;;;;;;;8.50;6.50;;;;;;;5.41;78.24;99870.03;1224306;75;2952079;-63
2023/12/17 09:29:15;;;;;;;10.95;6.55;;;;;;;6.26;75.91;99879.34;1225382;75;2922261;-69
2023/12/17 09:31:47;;;;;;;8.25;6.15;;;;;;;6.08;74.28;99878.56;1225552;75;2924768;-65
2023/12/17 09:34:20;;;;;;;7.60;5.55;;;;;;;7.63;70.50;99871.31;1225044;75;2925603;-65
2023/12/17 09:36:56;;;;;;;9.10;6.50;;;;;;;6.76;69.06;99868.31;1224671;75;2917099;-68
2023/12/17 09:39:28;;;;;;;11.50;6.50;;;;;;;7.29;67.63;99865.69;1224602;75;2921485;-65
2023/12/17 09:42:01;;;;;;;9.65;6.25;;;;;;;7.00;68.39;99863.16;1223491;75;2944434;-65
2023/12/17 09:44:34;;;;;;;9.50;6.35;;;;;;;7.56;67.62;99869.41;1224249;75;2927920;-68
2023/12/17 09:47:08;;;;;;;10.60;8.10;;;;;;;8.59;64.00;99861.44;1223675;75;2925018;-66
2023/12/17 09:49:41;;;;;;;10.95;7.05;;;;;;;8.23;65.02;99855.59;1224278;75;2921869;-68
2023/12/17 09:52:21;;;;;;;8.95;5.90;;;;;;;8.27;64.81;99862.56;1224841;75;2930813;-67
2023/12/17 09:54:54;;;;;;;9.10;7.20;;;;;;;8.47;64.40;99859.25;1225183;75;2921223;-66
2023/12/17 09:57:27;;;;;;;9.10;5.95;;;;;;;8.28;64.35;99841.50;1224432;75;2920085;-68
2023/12/17 09:59:59;;;;;;;8.45;5.75;;;;;;;8.37;65.16;99841.78;1222859;75;3060412;-64
2023/12/17 10:02:32;;;;;;;9.15;6.30;;;;;;;8.18;64.83;99845.09;1224531;75;2928062;-66
2023/12/17 10:05:05;;;;;;;8.45;5.95;;;;;;;10.46;58.45;99834.72;1225515;75;2906695;-65
2023/12/17 10:07:40;;;;;;;8.15;6.35;;;;;;;9.81;58.46;99829.63;1225159;75;2923748;-66
2023/12/17 10:10:15;;;;;;;8.55;7.15;;;;;;;12.53;54.57;99831.00;1225382;75;2917614;-68
2023/12/17 10:12:48;;;;;;;10.85;8.25;;;;;;;11.62;54.39;99815.34;1224955;75;2925280;-66
2023/12/17 10:15:22;;;;;;;12.40;8.50;;;;;;;12.86;51.88;99808.88;1223532;75;2928289;-68
2023/12/17 10:17:55;;;;;;;29.25;18.90;;;;;;;14.65;48.16;99811.22;1225595;75;2916752;-65
2023/12/17 10:20:28;;;;;;;15.00;10.45;;;;;;;13.10;48.70;99826.59;1224764;75;2932351;-68
2023/12/17 10:23:04;;;;;;;8.90;6.75;;;;;;;13.19;49.06;99821.22;1224300;75;2927358;-71
2023/12/17 10:25:37;;;;;;;9.55;5.80;;;;;;;12.44;49.40;99820.69;1224927;75;2929821;-67
2023/12/17 10:28:12;;;;;;;8.85;6.75;;;;;;;14.82;46.98;99809.78;1225273;75;2937374;-67
2023/12/17 10:30:47;;;;;;;11.30;8.90;;;;;;;13.51;47.77;99811.19;1225723;75;2927177;-67
2023/12/17 10:33:29;;;;;;;11.30;8.55;;;;;;;10.38;53.43;99808.69;1224027;75;2932460;-67
2023/12/17 10:36:02;;;;;;;11.70;7.55;;;;;;;10.58;53.72;99806.72;1224586;75;2921800;-63
2023/12/17 10:38:38;;;;;;;9.90;7.25;;;;;;;10.18;55.02;99800.44;1222366;75;2947771;-68
2023/12/17 10:41:15;;;;;;;8.90;6.25;;;;;;;11.75;52.73;99795.44;1224785;75;2922140;-69
2023/12/17 10:43:50;;;;;;;9.10;6.85;;;;;;;12.89;51.29;99803.28;1224331;75;2936269;-69
2023/12/17 10:46:24;;;;;;;9.10;6.60;;;;;;;14.68;46.52;99785.50;1225198;75;2918638;-66
2023/12/17 10:48:57;;;;;;;8.35;5.90;;;;;;;13.08;48.65;99785.00;1224531;75;2928145;-67
2023/12/17 10:51:30;;;;;;;7.15;5.85;;;;;;;14.65;47.03;99770.66;1224997;75;2921815;-69
2023/12/17 10:54:06;;;;;;;9.20;5.85;;;;;;;12.21;49.39;99772.25;1225142;75;2914674;-65
2023/12/17 10:56:44;;;;;;;7.35;5.40;;;;;;;15.29;47.04;99767.34;1224419;75;2922087;-68
2023/12/17 10:59:24;;;;;;;9.10;6.90;;;;;;;14.55;45.90;99754.50;1224593;75;2923381;-67
2023/12/17 11:01:59;;;;;;;10.90;6.25;;;;;;;15.17;45.69;99756.44;1224336;75;2931036;-69
2023/12/17 11:04:32;;;;;;;8.95;5.90;;;;;;;14.41;46.31;99751.03;1224628;75;2922345;-66
2023/12/17 11:07:05;;;;;;;9.30;6.85;;;;;;;15.98;43.90;99746.72;1224933;75;2920408;-67
2023/12/17 11:09:40;;;;;;;10.60;7.30;;;;;;;15.40;44.80;99747.59;1224424;75;2925654;-69
2023/12/17 11:12:15;;;;;;;8.35;5.15;;;;;;;18.83;40.28;99737.09;1223496;75;2922170;-68
2023/12/17 11:14:48;;;;;;;7.00;5.05;;;;;;;17.26;41.14;99741.25;1223286;75;2927283;-66
2023/12/17 11:17:21;;;;;;;8.50;5.55;;;;;;;18.71;39.56;99736.13;1224435;75;2918276;-69
2023/12/17 11:20:02;;;;;;;7.55;5.50;;;;;;;15.69;42.68;99741.63;1224486;75;2919836;-67
2023/12/17 11:22:39;;;;;;;10.55;5.55;;;;;;;16.94;41.68;99732.50;1224020;75;2925018;-66
2023/12/17 11:25:16;;;;;;;9.85;5.85;;;;;;;17.04;41.04;99728.47;1224155;75;2920989;-67
2023/12/17 11:27:52;;;;;;;8.40;5.40;;;;;;;16.74;41.36;99716.44;1223953;75;2925726;-67
2023/12/17 11:30:36;;;;;;;13.45;8.40;;;;;;;17.59;40.95;99704.44;1224539;75;2920493;-69
2023/12/17 11:33:09;;;;;;;7.85;5.45;;;;;;;17.77;40.17;99707.03;1224608;75;2927925;-65
2023/12/17 11:35:43;;;;;;;6.85;4.70;;;;;;;19.58;38.91;99718.91;1225109;75;2919950;-67
2023/12/17 11:38:17;;;;;;;7.05;5.30;;;;;;;17.82;40.67;99714.72;1223652;75;2924342;-65
2023/12/17 11:40:52;;;;;;;7.00;5.00;;;;;;;20.93;37.63;99713.84;1225474;75;2920410;-65
2023/12/17 11:43:25;;;;;;;7.45;4.45;;;;;;;19.85;36.55;99717.72;1224850;75;2927801;-68
2023/12/17 11:45:58;;;;;;;6.85;4.95;;;;;;;18.67;38.86;99716.91;1225508;75;2925265;-67
2023/12/17 11:48:31;;;;;;;10.10;6.00;;;;;;;18.94;37.68;99703.94;1224255;75;2928356;-65
2023/12/17 11:51:04;;;;;;;19.75;13.05;;;;;;;16.04;41.53;99715.72;1225313;75;2918647;-69
2023/12/17 11:53:45;;;;;;;7.90;5.55;;;;;;;15.50;42.54;99716.00;1224487;75;2921134;-65